Time;durP1;ratioP1;P1;durP2;ratioP2;P2;SDS_P1;SDS_P2;PMS_P1;PMS_P2;Temp;Humidity;BMP_temperature;BMP_pressure;BME280_temperature;BME280_humidity;BME280_pressure;Samples;Min_cycle;Max_cycle;Signal;HPM_P1;HPM_P2
2021/08/06 00:02:20;;;;;;;15.45;6.65;;;;;;;14.37;93.30;99283.89;125771;1096;27354;-79
2021/08/06 00:04:52;;;;;;;12.40;5.90;;;;;;;14.37;92.75;99279.05;125773;1096;22792;-79
2021/08/06 00:07:25;;;;;;;19.27;6.57;;;;;;;14.37;92.59;99275.47;125795;1095;22846;-77
2021/08/06 00:09:57;;;;;;;11.70;5.55;;;;;;;14.36;92.80;99271.16;125855;1096;27439;-78
2021/08/06 00:12:29;;;;;;;10.40;4.83;;;;;;;14.37;92.57;99281.84;125863;1096;22787;-79
2021/08/06 00:15:10;;;;;;;10.40;4.55;;;;;;;14.39;92.86;99272.89;125818;1096;22789;-80
2021/08/06 00:17:41;;;;;;;9.75;4.40;;;;;;;14.38;93.17;99282.62;125867;1095;22857;-77
2021/08/06 00:20:14;;;;;;;12.87;4.73;;;;;;;14.37;93.09;99279.05;125835;1095;22786;-78
2021/08/06 00:22:47;;;;;;;9.90;3.63;;;;;;;14.37;93.03;99279.05;126107;1095;22840;-79
2021/08/06 00:25:18;;;;;;;8.18;2.80;;;;;;;14.36;92.77;99280.31;125833;1096;23194;-78
2021/08/06 00:27:49;;;;;;;11.80;3.55;;;;;;;14.36;93.17;99271.89;125944;1096;22947;-78
2021/08/06 00:30:22;;;;;;;9.70;3.40;;;;;;;14.36;93.11;99276.77;125717;1096;24079;-78
2021/08/06 00:32:56;;;;;;;8.25;3.35;;;;;;;14.36;93.00;99273.96;125993;1096;26538;-79
2021/08/06 00:35:28;;;;;;;9.83;3.80;;;;;;;14.36;93.29;99279.58;126014;1096;23696;-80
2021/08/06 00:37:59;;;;;;;8.30;4.05;;;;;;;14.36;93.22;99268.34;125791;1096;25893;-77
2021/08/06 00:40:30;;;;;;;8.87;4.37;;;;;;;14.37;93.45;99264.23;125784;1096;22823;-78
2021/08/06 00:43:01;;;;;;;9.85;5.10;;;;;;;14.36;92.92;99274.70;125778;1096;24637;-79
2021/08/06 00:45:35;;;;;;;12.20;6.10;;;;;;;14.37;93.14;99275.47;125808;1095;25887;-78
2021/08/06 00:48:07;;;;;;;14.15;6.75;;;;;;;14.37;93.38;99267.05;125757;1096;25996;-78
2021/08/06 00:50:39;;;;;;;13.90;6.90;;;;;;;14.35;93.53;99261.97;125704;1096;24412;-78
2021/08/06 00:53:11;;;;;;;13.55;7.55;;;;;;;14.34;93.25;99263.23;125689;1095;22789;-81
2021/08/06 00:55:43;;;;;;;20.20;8.53;;;;;;;14.33;93.69;99260.97;125667;1096;26360;-81
2021/08/06 00:58:15;;;;;;;15.85;8.10;;;;;;;14.31;93.16;99264.31;125697;1096;26663;-78
2021/08/06 01:00:49;;;;;;;13.93;7.53;;;;;;;14.29;94.02;99260.50;125683;1096;24515;-78
2021/08/06 01:03:26;;;;;;;15.87;8.70;;;;;;;14.29;94.15;99266.13;125786;1096;22797;-79
2021/08/06 01:06:07;;;;;;;16.65;8.80;;;;;;;14.30;94.38;99262.01;125801;1096;22769;-78
2021/08/06 01:08:50;;;;;;;20.35;9.50;;;;;;;14.30;94.40;99256.40;125781;1096;22804;-77
2021/08/06 01:11:27;;;;;;;16.05;8.40;;;;;;;14.32;94.09;99254.59;125794;1096;22793;-78
2021/08/06 01:14:03;;;;;;;16.00;9.37;;;;;;;14.33;94.61;99247.70;125708;1095;22876;-78
2021/08/06 01:16:36;;;;;;;15.93;9.00;;;;;;;14.35;94.06;99247.16;125828;1096;25867;-77
2021/08/06 01:19:15;;;;;;;17.25;9.55;;;;;;;14.37;94.10;99242.54;125840;1096;22793;-78
2021/08/06 01:21:53;;;;;;;16.00;7.90;;;;;;;14.37;93.86;99236.92;125788;1096;22867;-77
2021/08/06 01:24:27;;;;;;;17.80;9.15;;;;;;;14.40;93.72;99240.73;125755;1096;22934;-78
2021/08/06 01:26:58;;;;;;;14.50;8.00;;;;;;;14.40;93.84;99244.27;125717;1096;22884;-78
2021/08/06 01:29:32;;;;;;;16.00;9.45;;;;;;;14.41;93.52;99245.80;125792;1096;26357;-77
2021/08/06 01:32:05;;;;;;;15.60;8.83;;;;;;;14.41;94.34;99236.62;125657;1096;25996;-80
2021/08/06 01:34:36;;;;;;;15.00;8.90;;;;;;;14.40;93.84;99232.30;125710;1096;22811;-77
2021/08/06 01:37:08;;;;;;;18.20;10.00;;;;;;;14.39;94.01;99233.58;125776;1096;24474;-80
2021/08/06 01:39:41;;;;;;;16.40;8.47;;;;;;;14.37;93.86;99236.92;125684;1096;25881;-78
2021/08/06 01:42:24;;;;;;;17.80;9.60;;;;;;;14.37;93.72;99230.55;125722;1096;23488;-78
2021/08/06 01:44:56;;;;;;;17.33;9.43;;;;;;;14.36;94.18;99235.39;125822;1096;22889;-78
2021/08/06 01:47:33;;;;;;;17.30;8.75;;;;;;;14.35;94.39;99227.51;125787;1095;23218;-78
2021/08/06 01:50:09;;;;;;;16.20;8.87;;;;;;;14.34;94.38;99228.78;125714;1096;22861;-78
2021/08/06 01:52:48;;;;;;;16.80;8.40;;;;;;;14.32;94.17;99226.52;125804;1096;22861;-78
2021/08/06 01:55:21;;;;;;;14.93;8.10;;;;;;;14.30;94.37;99220.66;125821;1096;26271;-78
2021/08/06 01:57:54;;;;;;;15.00;8.30;;;;;;;14.29;94.11;99218.39;125809;1096;24630;-78
2021/08/06 02:00:26;;;;;;;12.33;7.03;;;;;;;14.29;94.20;99215.59;125886;1096;24341;-78
2021/08/06 02:02:58;;;;;;;13.55;8.35;;;;;;;14.29;93.93;99226.81;125708;1096;23219;-78
2021/08/06 02:05:31;;;;;;;16.05;8.15;;;;;;;14.29;94.21;99226.81;125800;1095;25961;-78
2021/08/06 02:08:10;;;;;;;16.63;7.83;;;;;;;14.27;94.00;99218.91;125909;1096;22774;-78
2021/08/06 02:10:42;;;;;;;13.63;7.27;;;;;;;14.27;94.02;99226.56;125686;1096;22858;-79
2021/08/06 02:13:14;;;;;;;13.50;7.40;;;;;;;14.26;94.27;99220.17;125715;1096;23714;-78
2021/08/06 02:15:49;;;;;;;15.35;9.00;;;;;;;14.24;94.01;99219.95;125769;1096;22870;-78
2021/08/06 02:18:23;;;;;;;14.40;6.65;;;;;;;14.23;94.30;99221.25;125742;1096;26686;-80
2021/08/06 02:20:58;;;;;;;14.67;7.00;;;;;;;14.23;94.18;99223.29;125867;1096;22863;-79
2021/08/06 02:23:35;;;;;;;13.80;7.10;;;;;;;14.22;94.68;99221.76;125714;1095;22928;-79
2021/08/06 02:26:11;;;;;;;14.95;7.60;;;;;;;14.21;94.60;99217.45;125735;1096;27164;-82
2021/08/06 02:28:44;;;;;;;17.05;7.30;;;;;;;14.20;94.66;99221.53;125768;1095;22824;-78
2021/08/06 02:31:16;;;;;;;14.50;7.75;;;;;;;14.19;94.27;99217.98;125740;1096;22893;-78
2021/08/06 02:33:48;;;;;;;13.10;6.20;;;;;;;14.19;94.62;99217.98;125770;1096;22793;-78
2021/08/06 02:36:22;;;;;;;15.60;6.00;;;;;;;14.18;94.72;99222.06;125688;1096;27301;-78
2021/08/06 02:38:59;;;;;;;14.97;7.50;;;;;;;14.17;95.00;99206.52;125799;1096;22874;-79
2021/08/06 02:41:33;;;;;;;15.40;6.95;;;;;;;14.17;94.78;99214.18;125716;1095;22924;-79
2021/08/06 02:44:05;;;;;;;15.35;7.80;;;;;;;14.17;94.54;99211.38;125722;1096;22891;-79
2021/08/06 02:46:36;;;;;;;14.93;7.07;;;;;;;14.17;94.49;99200.91;125689;1096;26523;-79
2021/08/06 02:49:09;;;;;;;15.90;7.70;;;;;;;14.17;94.60;99205.76;125755;1096;22813;-79
2021/08/06 02:51:40;;;;;;;16.30;8.00;;;;;;;14.17;94.36;99202.95;125810;1095;22789;-79
2021/08/06 02:54:12;;;;;;;13.37;6.80;;;;;;;14.17;94.42;99200.14;125667;1096;22851;-79
2021/08/06 02:56:44;;;;;;;15.23;7.90;;;;;;;14.17;94.32;99206.52;125732;1096;24614;-80
2021/08/06 02:59:15;;;;;;;14.85;8.50;;;;;;;14.18;94.72;99198.84;125757;1096;22902;-80
2021/08/06 03:01:46;;;;;;;17.10;8.80;;;;;;;14.18;94.78;99193.23;125752;1096;26326;-79
2021/08/06 03:04:18;;;;;;;18.70;8.87;;;;;;;14.17;94.20;99191.72;125723;1095;22815;-78
2021/08/06 03:06:53;;;;;;;15.30;8.77;;;;;;;14.17;94.11;99192.48;125788;1096;22927;-79
2021/08/06 03:09:26;;;;;;;16.53;8.23;;;;;;;14.18;94.62;99198.84;125916;1096;26261;-79
2021/08/06 03:11:57;;;;;;;15.53;8.90;;;;;;;14.17;94.30;99202.95;125775;1096;22787;-79
2021/08/06 03:14:30;;;;;;;16.90;8.07;;;;;;;14.17;94.60;99195.30;125753;1096;22831;-78
2021/08/06 03:17:01;;;;;;;17.35;8.95;;;;;;;14.19;94.41;99197.56;125772;1096;22809;-79
2021/08/06 03:19:32;;;;;;;16.80;7.45;;;;;;;14.17;94.53;99189.69;125788;1096;22858;-79
2021/08/06 03:22:07;;;;;;;14.40;8.03;;;;;;;14.18;94.69;99199.61;125825;1096;26290;-79
2021/08/06 03:24:39;;;;;;;15.85;6.30;;;;;;;14.19;94.51;99194.76;125805;1096;22807;-78
2021/08/06 03:27:10;;;;;;;14.25;7.25;;;;;;;14.19;94.49;99197.56;125833;1096;22942;-78
2021/08/06 03:29:41;;;;;;;16.30;7.55;;;;;;;14.18;94.71;99190.42;125807;1096;22824;-79
2021/08/06 03:32:12;;;;;;;14.60;8.20;;;;;;;14.18;95.04;99196.03;125751;1096;22820;-79
2021/08/06 03:34:44;;;;;;;16.20;7.55;;;;;;;14.18;94.49;99184.80;125825;1096;22871;-79
2021/08/06 03:37:15;;;;;;;16.20;8.05;;;;;;;14.19;94.73;99186.34;125863;1096;22863;-78
2021/08/06 03:39:47;;;;;;;15.95;7.90;;;;;;;14.18;94.23;99190.42;125834;1096;22792;-78
2021/08/06 03:42:19;;;;;;;15.00;8.00;;;;;;;14.19;94.25;99197.56;125723;1096;22827;-78
2021/08/06 03:44:51;;;;;;;16.00;8.45;;;;;;;14.19;94.21;99192.72;125803;1096;22887;-78
2021/08/06 03:47:22;;;;;;;18.10;8.30;;;;;;;14.20;94.40;99204.69;125905;1096;22776;-78
2021/08/06 03:49:53;;;;;;;15.60;8.00;;;;;;;14.21;94.57;99206.98;125726;1096;22873;-78
2021/08/06 03:52:28;;;;;;;15.50;8.10;;;;;;;14.21;94.70;99206.22;125770;1096;22941;-78
2021/08/06 03:55:00;;;;;;;15.80;9.15;;;;;;;14.22;94.89;99210.53;125823;1096;25939;-78
2021/08/06 03:57:31;;;;;;;18.45;8.80;;;;;;;14.23;95.04;99212.06;125919;1096;22824;-78
2021/08/06 04:00:06;;;;;;;16.80;8.63;;;;;;;14.23;94.85;99214.87;125795;1096;27738;-78
2021/08/06 04:02:39;;;;;;;16.55;9.05;;;;;;;14.23;95.03;99209.25;125775;1096;24465;-79
2021/08/06 04:05:12;;;;;;;15.40;8.60;;;;;;;14.23;95.00;99210.02;126184;1096;22793;-79
2021/08/06 04:07:53;;;;;;;16.15;9.30;;;;;;;14.24;95.01;99205.14;125767;1096;24498;-79
2021/08/06 04:10:26;;;;;;;18.03;9.47;;;;;;;14.25;95.21;99212.30;125802;1095;22868;-79
2021/08/06 04:12:59;;;;;;;19.90;10.80;;;;;;;14.25;95.31;99212.30;125772;1096;22871;-78
2021/08/06 04:15:31;;;;;;;14.73;8.53;;;;;;;14.25;94.68;99212.30;125747;1096;22783;-79
2021/08/06 04:18:05;;;;;;;16.67;8.93;;;;;;;14.26;95.11;99213.80;125796;1096;22808;-78
2021/08/06 04:20:37;;;;;;;17.40;10.00;;;;;;;14.26;95.16;99206.14;125780;1096;22867;-78
2021/08/06 04:23:08;;;;;;;19.65;10.55;;;;;;;14.27;94.95;99206.91;125758;1096;26264;-79
2021/08/06 04:25:40;;;;;;;19.90;10.50;;;;;;;14.28;94.60;99203.59;125706;1096;22795;-79
2021/08/06 04:28:11;;;;;;;19.85;10.45;;;;;;;14.30;94.67;99205.86;125744;1096;23241;-81
2021/08/06 04:30:43;;;;;;;22.10;11.80;;;;;;;14.32;94.97;99198.44;125817;1096;22861;-78
2021/08/06 04:33:14;;;;;;;20.60;12.30;;;;;;;14.33;94.48;99197.16;125830;1096;25881;-81
2021/08/06 04:35:45;;;;;;;21.50;11.95;;;;;;;14.35;94.60;99196.63;125791;1096;22801;-78
2021/08/06 04:38:16;;;;;;;21.17;12.13;;;;;;;14.37;94.98;99191.23;125851;1096;22804;-80
2021/08/06 04:40:47;;;;;;;19.77;11.90;;;;;;;14.38;94.58;99192.77;125722;1096;22773;-79
2021/08/06 04:43:23;;;;;;;19.95;11.40;;;;;;;14.40;94.66;99198.61;125754;1096;22783;-78
2021/08/06 04:45:55;;;;;;;19.60;11.20;;;;;;;14.40;94.62;99196.54;125970;1096;22773;-77
2021/08/06 04:48:26;;;;;;;20.55;11.80;;;;;;;14.41;94.74;99192.45;125846;1096;22811;-78
2021/08/06 04:50:57;;;;;;;20.80;12.50;;;;;;;14.43;94.49;99200.34;125720;1096;25855;-78
2021/08/06 04:53:31;;;;;;;20.65;11.70;;;;;;;14.45;94.88;99203.38;125806;1096;22786;-79
2021/08/06 04:56:03;;;;;;;20.95;11.70;;;;;;;14.45;94.82;99204.14;125744;1096;22857;-79
2021/08/06 04:58:34;;;;;;;21.90;11.15;;;;;;;14.46;94.48;99211.27;125755;1096;22785;-78
2021/08/06 05:01:05;;;;;;;19.60;10.30;;;;;;;14.48;94.87;99213.56;125712;1096;26251;-78
2021/08/06 05:03:37;;;;;;;17.15;10.60;;;;;;;14.51;94.98;99198.44;125779;1096;22854;-79
2021/08/06 05:06:08;;;;;;;20.85;11.30;;;;;;;14.51;95.02;99204.06;125744;1095;25542;-78
2021/08/06 05:08:43;;;;;;;18.40;10.35;;;;;;;14.54;94.82;99203.02;125722;1095;24487;-78
2021/08/06 05:11:15;;;;;;;16.80;9.75;;;;;;;14.56;94.48;99203.24;125942;1096;23805;-78
2021/08/06 05:13:47;;;;;;;18.10;9.80;;;;;;;14.57;94.45;99208.31;125767;1095;22800;-78
2021/08/06 05:16:19;;;;;;;20.10;10.50;;;;;;;14.58;94.67;99211.89;125815;1096;23926;-78
2021/08/06 05:18:52;;;;;;;19.70;9.33;;;;;;;14.56;94.67;99209.63;125818;1096;22855;-78
2021/08/06 05:21:23;;;;;;;19.25;10.85;;;;;;;14.56;94.98;99208.86;125823;1096;22795;-80
2021/08/06 05:23:56;;;;;;;15.60;9.45;;;;;;;14.56;94.87;99208.86;125685;1095;22793;-78
2021/08/06 05:26:29;;;;;;;18.50;8.80;;;;;;;14.55;94.71;99215.75;125703;1096;22812;-77
2021/08/06 05:29:00;;;;;;;17.83;9.10;;;;;;;14.53;95.17;99201.48;125802;1096;22793;-78
2021/08/06 05:31:31;;;;;;;19.35;9.80;;;;;;;14.53;94.98;99204.29;125741;1096;25881;-79
2021/08/06 05:34:02;;;;;;;18.00;10.20;;;;;;;14.53;95.23;99207.09;125761;1096;22813;-80
2021/08/06 05:36:34;;;;;;;19.10;10.00;;;;;;;14.51;95.53;99201.25;125735;1096;24518;-80
2021/08/06 05:39:05;;;;;;;19.60;10.90;;;;;;;14.53;95.00;99209.91;125762;1096;22790;-78
2021/08/06 05:41:37;;;;;;;17.75;10.95;;;;;;;14.52;95.28;99209.14;125738;1096;22943;-79
2021/08/06 05:44:09;;;;;;;21.20;11.10;;;;;;;14.55;95.47;99212.94;125757;1096;23993;-81
2021/08/06 05:46:42;;;;;;;18.30;10.60;;;;;;;14.56;95.03;99211.67;125706;1096;27189;-80
2021/08/06 05:49:14;;;;;;;19.65;10.80;;;;;;;14.57;95.13;99208.31;125812;1096;26325;-78
2021/08/06 05:51:48;;;;;;;20.05;11.40;;;;;;;14.58;95.05;99204.23;125826;1096;25862;-78
2021/08/06 05:54:20;;;;;;;20.00;10.65;;;;;;;14.63;95.51;99207.49;125785;1096;22773;-78
2021/08/06 05:56:51;;;;;;;20.35;11.00;;;;;;;14.67;95.28;99202.33;125750;1096;25875;-82
2021/08/06 05:59:23;;;;;;;21.50;12.20;;;;;;;14.70;95.55;99204.06;125727;1096;22778;-78
2021/08/06 06:01:55;;;;;;;21.10;9.95;;;;;;;14.71;95.04;99209.14;125722;1096;22864;-81
2021/08/06 06:04:27;;;;;;;19.00;11.20;;;;;;;14.73;95.14;99217.82;125706;1096;22809;-78
2021/08/06 06:07:01;;;;;;;23.20;12.75;;;;;;;14.75;95.02;99209.62;125792;1096;22770;-78
2021/08/06 06:09:35;;;;;;;19.90;11.40;;;;;;;14.78;95.05;99207.77;125780;1096;22803;-78
2021/08/06 06:12:07;;;;;;;20.70;13.15;;;;;;;14.80;95.25;99203.14;125765;1096;22773;-78
2021/08/06 06:14:38;;;;;;;23.85;12.95;;;;;;;14.85;95.12;99207.94;125789;1095;22817;-78
2021/08/06 06:17:20;;;;;;;20.03;12.10;;;;;;;14.90;95.13;99203.50;125742;1096;22888;-79
2021/08/06 06:19:52;;;;;;;22.40;12.05;;;;;;;14.97;95.60;99194.47;125731;1096;25875;-79
2021/08/06 06:22:24;;;;;;;23.90;12.70;;;;;;;15.03;95.32;99201.52;125747;1096;26264;-79
2021/08/06 06:24:56;;;;;;;21.95;12.10;;;;;;;15.08;95.18;99203.47;125673;1095;22802;-81
2021/08/06 06:27:28;;;;;;;20.95;11.70;;;;;;;15.15;95.23;99202.86;125758;1096;26264;-79
2021/08/06 06:30:02;;;;;;;18.25;12.20;;;;;;;15.23;95.16;99197.36;125699;1096;25890;-79
2021/08/06 06:32:36;;;;;;;20.50;12.60;;;;;;;15.30;95.09;99197.51;125697;1096;22776;-80
2021/08/06 06:35:18;;;;;;;20.40;12.50;;;;;;;15.40;95.16;99190.17;125671;1096;24344;-80
2021/08/06 06:37:51;;;;;;;20.17;11.83;;;;;;;15.49;94.96;99199.52;125774;1096;24628;-80
2021/08/06 06:40:26;;;;;;;21.10;13.20;;;;;;;15.55;94.97;99203.76;125690;1096;22816;-79
2021/08/06 06:42:58;;;;;;;18.75;10.95;;;;;;;15.65;94.81;99201.27;125719;1096;22792;-79
2021/08/06 06:45:31;;;;;;;25.20;13.30;;;;;;;15.70;94.81;99214.49;125682;1096;25986;-80
2021/08/06 06:48:08;;;;;;;21.50;12.70;;;;;;;15.73;94.69;99208.54;125645;1096;22815;-80
2021/08/06 06:50:40;;;;;;;15.35;9.40;;;;;;;15.75;94.40;99208.76;125750;1096;25886;-79
2021/08/06 06:53:14;;;;;;;18.65;10.70;;;;;;;15.77;93.63;99213.84;125709;1096;22803;-80
2021/08/06 06:55:46;;;;;;;17.10;9.90;;;;;;;15.75;93.90;99202.36;125749;1096;22782;-78
2021/08/06 06:58:19;;;;;;;15.10;8.73;;;;;;;15.77;93.61;99206.16;125724;1096;26304;-78
2021/08/06 07:00:51;;;;;;;16.85;9.30;;;;;;;15.74;93.69;99212.88;125791;1096;22797;-79
2021/08/06 07:03:22;;;;;;;16.40;9.10;;;;;;;15.72;93.18;99212.66;125762;1096;22909;-78
2021/08/06 07:05:57;;;;;;;15.55;9.20;;;;;;;15.73;93.46;99219.80;125649;1095;22955;-79
2021/08/06 07:08:29;;;;;;;16.80;8.90;;;;;;;15.76;92.97;99220.78;125740;1096;22870;-79
2021/08/06 07:11:05;;;;;;;15.75;8.45;;;;;;;15.75;93.35;99222.06;125706;1095;22911;-78
2021/08/06 07:13:38;;;;;;;21.40;8.70;;;;;;;15.75;92.98;99224.88;125730;1096;22808;-78
2021/08/06 07:16:09;;;;;;;16.80;9.13;;;;;;;15.76;93.69;99226.41;125732;1095;22803;-79
2021/08/06 07:18:40;;;;;;;17.13;7.77;;;;;;;15.80;93.26;99232.47;125751;1095;26604;-78
2021/08/06 07:21:13;;;;;;;14.40;7.30;;;;;;;15.79;92.55;99242.20;125693;1095;26306;-78
2021/08/06 07:23:45;;;;;;;17.60;8.95;;;;;;;15.79;92.65;99240.14;125730;1096;22799;-78
2021/08/06 07:26:17;;;;;;;18.40;8.60;;;;;;;15.82;93.05;99238.31;125737;1096;22816;-81
2021/08/06 07:28:49;;;;;;;16.95;7.40;;;;;;;15.85;92.60;99237.25;125818;1096;27243;-78
2021/08/06 07:31:22;;;;;;;14.70;7.50;;;;;;;15.89;92.60;99229.98;125783;1096;25897;-78
2021/08/06 07:33:53;;;;;;;12.30;6.90;;;;;;;15.95;93.10;99230.63;125741;1096;22815;-81
2021/08/06 07:36:26;;;;;;;14.20;7.00;;;;;;;16.02;92.75;99232.05;125803;1096;22803;-78
2021/08/06 07:38:57;;;;;;;22.75;6.00;;;;;;;16.06;91.64;99238.11;125769;1096;23319;-80
2021/08/06 07:41:28;;;;;;;15.20;6.30;;;;;;;16.09;91.57;99240.63;125750;1095;25677;-79
2021/08/06 07:44:00;;;;;;;11.40;5.60;;;;;;;16.14;91.53;99236.16;125675;1095;22816;-79
2021/08/06 07:46:32;;;;;;;11.85;5.60;;;;;;;16.17;91.42;99238.67;125737;1096;22815;-78
2021/08/06 07:49:04;;;;;;;8.70;4.05;;;;;;;16.22;90.51;99242.69;125803;1096;22804;-78
2021/08/06 07:51:36;;;;;;;10.60;4.50;;;;;;;16.27;90.88;99243.85;125692;1095;27315;-78
2021/08/06 07:54:08;;;;;;;10.25;4.25;;;;;;;16.34;91.43;99255.23;125711;1096;22920;-78
2021/08/06 07:56:41;;;;;;;10.35;3.75;;;;;;;16.39;90.48;99256.44;125775;1095;22821;-78
2021/08/06 07:59:14;;;;;;;10.45;3.40;;;;;;;16.45;90.19;99251.44;125742;1096;26280;-78
2021/08/06 08:01:46;;;;;;;9.60;3.43;;;;;;;16.49;90.04;99249.81;125744;1096;22808;-78
2021/08/06 08:04:18;;;;;;;7.63;3.00;;;;;;;16.55;89.78;99241.27;125766;1096;22782;-78
2021/08/06 08:06:51;;;;;;;9.05;3.05;;;;;;;16.61;89.67;99262.40;125813;1096;22945;-80
2021/08/06 08:09:23;;;;;;;7.37;2.47;;;;;;;16.68;89.08;99252.50;125773;1096;22855;-80
2021/08/06 08:11:55;;;;;;;7.30;2.73;;;;;;;16.73;88.41;99254.45;125811;1096;26302;-78
2021/08/06 08:14:28;;;;;;;10.20;2.90;;;;;;;16.79;88.10;99258.67;125783;1096;22866;-78
2021/08/06 08:17:02;;;;;;;5.43;1.73;;;;;;;16.86;87.04;99257.98;125801;1096;22848;-81
2021/08/06 08:19:34;;;;;;;6.95;2.10;;;;;;;16.96;87.52;99255.48;125746;1096;28433;-78
2021/08/06 08:22:06;;;;;;;8.60;2.43;;;;;;;17.00;87.06;99255.91;125822;1096;22804;-78
2021/08/06 08:24:39;;;;;;;5.00;1.85;;;;;;;17.08;87.64;99253.16;125750;1096;22860;-78
2021/08/06 08:27:12;;;;;;;6.60;2.10;;;;;;;17.18;87.40;99259.84;125749;1096;23521;-78
2021/08/06 08:29:46;;;;;;;6.00;1.80;;;;;;;17.24;86.55;99258.41;125815;1096;22849;-78
2021/08/06 08:32:21;;;;;;;6.67;1.63;;;;;;;17.29;86.57;99257.53;125770;1096;22854;-79
2021/08/06 08:34:53;;;;;;;4.90;1.60;;;;;;;17.36;85.28;99261.74;125829;1096;22791;-78
2021/08/06 08:37:25;;;;;;;6.70;1.93;;;;;;;17.43;85.79;99249.75;125771;1096;22810;-78
2021/08/06 08:39:57;;;;;;;4.27;1.60;;;;;;;17.50;83.54;99251.93;125758;1096;22844;-78
2021/08/06 08:42:29;;;;;;;5.93;1.73;;;;;;;17.57;84.93;99257.63;125797;1096;22828;-78
2021/08/06 08:45:03;;;;;;;6.08;1.53;;;;;;;17.66;82.35;99268.45;125718;1096;22818;-78
2021/08/06 08:47:36;;;;;;;5.45;1.30;;;;;;;17.73;81.82;99264.19;125925;1096;22771;-77
2021/08/06 08:50:09;;;;;;;5.73;1.43;;;;;;;17.81;83.42;99259.35;125725;1096;28330;-80
2021/08/06 08:52:41;;;;;;;6.15;1.30;;;;;;;17.88;80.82;99264.28;125786;1096;22843;-78
2021/08/06 08:55:14;;;;;;;4.37;1.37;;;;;;;17.93;79.61;99265.45;125796;1096;22777;-78
2021/08/06 08:57:46;;;;;;;4.93;1.20;;;;;;;17.96;81.22;99270.74;125855;1096;22822;-78
2021/08/06 09:00:20;;;;;;;5.60;1.20;;;;;;;18.00;79.36;99259.85;125764;1096;26296;-78
2021/08/06 09:02:53;;;;;;;3.43;0.90;;;;;;;18.03;76.70;99264.41;125785;1096;23709;-79
2021/08/06 09:05:26;;;;;;;2.55;0.80;;;;;;;18.07;77.46;99266.87;125757;1096;22829;-78
2021/08/06 09:07:58;;;;;;;4.20;1.00;;;;;;;18.11;78.82;99267.27;125755;1096;22837;-78
2021/08/06 09:10:32;;;;;;;3.30;1.07;;;;;;;18.12;76.36;99268.80;126047;1095;22881;-79
2021/08/06 09:13:06;;;;;;;3.83;1.08;;;;;;;18.13;77.08;99278.77;125759;1095;22870;-78
2021/08/06 09:15:53;;;;;;;2.63;0.80;;;;;;;18.15;76.94;99284.63;125759;1096;22817;-78
2021/08/06 09:18:38;;;;;;;3.08;0.90;;;;;;;18.20;77.41;99283.73;125879;1096;22812;-79
2021/08/06 09:21:23;;;;;;;3.13;1.10;;;;;;;18.24;76.51;99279.24;125842;1096;22806;-78
2021/08/06 09:23:56;;;;;;;3.57;0.90;;;;;;;18.30;76.07;99282.67;125901;1096;22858;-79
2021/08/06 09:26:42;;;;;;;3.58;0.83;;;;;;;18.35;75.51;99276.09;125839;1096;23013;-78
2021/08/06 09:29:17;;;;;;;4.73;1.00;;;;;;;18.38;74.00;99285.53;125787;1096;22790;-78
2021/08/06 09:32:00;;;;;;;3.73;1.10;;;;;;;18.45;75.48;99279.21;125819;1096;22813;-79
2021/08/06 09:34:36;;;;;;;3.80;0.90;;;;;;;18.51;74.37;99285.46;125850;1096;22782;-78
2021/08/06 09:37:11;;;;;;;3.05;1.00;;;;;;;18.56;74.42;99288.13;125714;1096;22836;-78
2021/08/06 09:39:47;;;;;;;3.98;1.00;;;;;;;18.65;75.63;99286.85;125807;1096;22863;-78
2021/08/06 09:42:22;;;;;;;8.20;1.20;;;;;;;18.76;74.66;99285.77;125681;1096;22829;-77
2021/08/06 09:45:03;;;;;;;5.13;0.80;;;;;;;18.86;73.23;99286.76;125736;1095;22818;-77
2021/08/06 09:47:36;;;;;;;2.63;0.90;;;;;;;18.96;73.49;99299.05;125745;1096;22847;-78
2021/08/06 09:50:13;;;;;;;6.18;1.08;;;;;;;19.07;74.13;99293.06;125750;1095;22869;-77
2021/08/06 09:52:46;;;;;;;6.18;1.13;;;;;;;19.18;73.72;99296.30;125828;1096;28267;-77
2021/08/06 09:55:24;;;;;;;4.98;1.10;;;;;;;19.22;71.93;99296.69;125627;1096;22857;-78
2021/08/06 09:58:00;;;;;;;4.55;1.08;;;;;;;19.31;73.03;99295.39;125832;1095;22829;-78
2021/08/06 10:00:32;;;;;;;3.05;0.80;;;;;;;19.40;72.61;99283.56;125933;1095;26294;-78
2021/08/06 10:03:07;;;;;;;3.75;0.90;;;;;;;19.47;70.17;99290.56;125717;1096;25992;-77
2021/08/06 10:05:40;;;;;;;2.98;1.00;;;;;;;19.51;70.45;99288.88;125757;1096;22893;-78
2021/08/06 10:08:12;;;;;;;4.33;0.90;;;;;;;19.52;70.09;99287.55;125757;1096;22953;-78
2021/08/06 10:10:45;;;;;;;3.93;0.63;;;;;;;19.54;67.38;99290.57;125678;1096;27208;-79
2021/08/06 10:13:17;;;;;;;4.78;0.70;;;;;;;19.55;66.39;99277.17;125733;1095;22816;-77
2021/08/06 10:15:49;;;;;;;2.35;0.55;;;;;;;19.58;65.95;99293.78;125714;1096;24177;-78
2021/08/06 10:18:21;;;;;;;2.43;0.60;;;;;;;19.60;66.14;99281.88;125732;1096;22783;-77
2021/08/06 10:20:54;;;;;;;3.80;0.63;;;;;;;19.66;65.61;99286.05;125673;1095;22855;-77
2021/08/06 10:23:28;;;;;;;2.33;0.60;;;;;;;19.78;64.84;99292.12;125732;1095;22932;-77
2021/08/06 10:26:04;;;;;;;2.93;0.80;;;;;;;19.86;64.78;99284.38;125699;1096;22779;-78
2021/08/06 10:28:36;;;;;;;2.23;0.40;;;;;;;19.91;63.21;99289.08;125658;1096;22776;-77
2021/08/06 10:31:25;;;;;;;3.13;0.60;;;;;;;19.95;62.04;99290.22;125731;1095;22805;-77
2021/08/06 10:34:08;;;;;;;1.53;0.50;;;;;;;19.97;62.03;99296.07;125700;1096;25941;-79
2021/08/06 10:36:44;;;;;;;2.23;0.50;;;;;;;19.95;61.08;99292.28;125741;1095;22774;-77
2021/08/06 10:39:44;;;;;;;1.73;0.43;;;;;;;19.87;59.00;99275.30;125795;1096;22777;-79
2021/08/06 10:42:31;;;;;;;2.48;0.60;;;;;;;19.86;60.67;99295.70;125756;1100;22979;-77
2021/08/06 10:45:05;;;;;;;2.40;0.63;;;;;;;19.88;61.95;99285.33;125657;1100;23238;-78
2021/08/06 10:47:53;;;;;;;1.70;0.53;;;;;;;19.93;59.98;99290.03;125650;1098;22802;-81
2021/08/06 10:50:25;;;;;;;2.43;0.60;;;;;;;19.95;58.49;99289.45;125700;1100;22941;-79
2021/08/06 10:53:19;;;;;;;3.40;0.60;;;;;;;20.05;60.04;99299.66;125554;1100;23610;-80
2021/08/06 10:56:29;;;;;;;2.85;0.70;;;;;;;20.13;60.40;99277.73;125674;1098;22875;-78
2021/08/06 10:59:04;;;;;;;4.25;0.70;;;;;;;20.17;60.44;99286.61;125580;1098;22870;-77
2021/08/06 11:01:42;;;;;;;2.13;0.60;;;;;;;20.19;60.73;99286.06;125677;1098;22890;-77
2021/08/06 11:04:46;;;;;;;2.53;0.68;;;;;;;20.18;61.05;99288.13;125766;1099;22789;-78
2021/08/06 11:07:34;;;;;;;6.15;0.90;;;;;;;20.20;60.57;99281.91;125642;1098;22790;-80
2021/08/06 11:10:07;;;;;;;2.93;0.65;;;;;;;20.24;60.81;99287.95;125572;1100;23033;-78
2021/08/06 11:12:39;;;;;;;4.28;0.60;;;;;;;20.27;61.44;99288.91;125698;1100;24443;-77
2021/08/06 11:15:11;;;;;;;2.33;0.60;;;;;;;20.22;60.47;99281.34;125674;1098;27377;-78
2021/08/06 11:17:47;;;;;;;3.17;0.60;;;;;;;20.08;59.95;99283.60;125645;1099;23082;-77
2021/08/06 11:20:22;;;;;;;1.70;0.50;;;;;;;19.99;58.25;99284.92;125674;1095;23728;-79
2021/08/06 11:22:54;;;;;;;3.85;0.73;;;;;;;19.91;59.73;99286.25;125907;1096;25877;-80
2021/08/06 11:25:29;;;;;;;2.73;0.65;;;;;;;19.88;60.55;99288.16;125710;1096;22792;-78
2021/08/06 11:28:02;;;;;;;3.48;0.43;;;;;;;19.89;60.52;99286.06;125812;1096;22813;-77
2021/08/06 11:30:36;;;;;;;3.55;0.45;;;;;;;19.89;59.66;99286.82;125824;1096;22799;-77
2021/08/06 11:33:11;;;;;;;4.25;0.60;;;;;;;19.89;59.97;99280.39;125844;1096;22874;-78
2021/08/06 11:35:45;;;;;;;3.28;0.60;;;;;;;19.91;59.83;99284.17;125844;1095;22867;-78
2021/08/06 11:38:20;;;;;;;6.50;0.50;;;;;;;19.98;60.47;99285.50;125804;1096;24461;-78
2021/08/06 11:40:57;;;;;;;2.73;0.60;;;;;;;20.05;59.68;99279.06;125756;1096;22844;-77
2021/08/06 11:43:30;;;;;;;3.05;0.60;;;;;;;20.14;59.40;99289.83;125726;1096;22813;-77
2021/08/06 11:46:11;;;;;;;2.73;0.48;;;;;;;20.20;59.53;99287.58;125676;1095;22798;-79
2021/08/06 11:48:51;;;;;;;4.33;0.70;;;;;;;20.29;59.75;99287.02;125914;1095;22799;-78
2021/08/06 11:51:24;;;;;;;3.50;0.60;;;;;;;20.38;59.59;99288.52;125753;1095;22861;-79